sensor_id;sensor_type;location;lat;lon;timestamp;pressure;altitude;pressure_sealevel;temperature;humidity
43281;BME280;62175;49.416;8.690;2022-10-26T00:01:08;100441.69;;;18.26;60.43
43281;BME280;62175;49.416;8.690;2022-10-26T00:03:37;100438.50;;;18.28;59.71
43281;BME280;62175;49.416;8.690;2022-10-26T00:06:07;100434.95;;;18.66;58.84
43281;BME280;62175;49.416;8.690;2022-10-26T00:08:34;100429.99;;;18.61;56.05
43281;BME280;62175;49.416;8.690;2022-10-26T00:11:03;100428.32;;;18.51;55.92
43281;BME280;62175;49.416;8.690;2022-10-26T00:13:30;100432.18;;;18.42;58.23
43281;BME280;62175;49.416;8.690;2022-10-26T00:15:58;100434.21;;;18.71;58.35
43281;BME280;62175;49.416;8.690;2022-10-26T00:18:26;100437.30;;;18.48;54.86
43281;BME280;62175;49.416;8.690;2022-10-26T00:20:52;100446.03;;;18.91;56.96
43281;BME280;62175;49.416;8.690;2022-10-26T00:23:20;100458.18;;;18.61;55.69
43281;BME280;62175;49.416;8.690;2022-10-26T00:25:53;100463.86;;;18.65;55.09
43281;BME280;62175;49.416;8.690;2022-10-26T00:28:20;100465.21;;;18.71;57.29
43281;BME280;62175;49.416;8.690;2022-10-26T00:30:47;100453.75;;;18.87;57.93
43281;BME280;62175;49.416;8.690;2022-10-26T00:33:15;100453.54;;;18.93;58.45
43281;BME280;62175;49.416;8.690;2022-10-26T00:35:42;100454.10;;;18.74;56.81
43281;BME280;62175;49.416;8.690;2022-10-26T00:38:09;100459.36;;;18.71;54.59
43281;BME280;62175;49.416;8.690;2022-10-26T00:40:36;100493.24;;;18.40;53.59
43281;BME280;62175;49.416;8.690;2022-10-26T00:43:08;100498.45;;;18.65;54.97
43281;BME280;62175;49.416;8.690;2022-10-26T00:45:35;100497.49;;;18.54;55.56
43281;BME280;62175;49.416;8.690;2022-10-26T00:48:05;100499.79;;;18.40;57.30
43281;BME280;62175;49.416;8.690;2022-10-26T00:50:37;100484.37;;;18.71;57.55
43281;BME280;62175;49.416;8.690;2022-10-26T00:53:05;100473.42;;;18.66;56.75
43281;BME280;62175;49.416;8.690;2022-10-26T00:55:36;100461.67;;;18.86;56.45
43281;BME280;62175;49.416;8.690;2022-10-26T00:58:06;100462.15;;;18.54;56.80
43281;BME280;62175;49.416;8.690;2022-10-26T01:00:34;100457.77;;;18.68;56.13
43281;BME280;62175;49.416;8.690;2022-10-26T01:03:07;100448.72;;;18.83;56.96
43281;BME280;62175;49.416;8.690;2022-10-26T01:05:36;100439.89;;;18.84;56.95
43281;BME280;62175;49.416;8.690;2022-10-26T01:08:04;100439.26;;;18.83;54.13
43281;BME280;62175;49.416;8.690;2022-10-26T01:10:32;100442.33;;;18.51;54.97
43281;BME280;62175;49.416;8.690;2022-10-26T01:13:00;100435.20;;;18.57;56.43
43281;BME280;62175;49.416;8.690;2022-10-26T01:15:32;100431.28;;;18.80;53.60
43281;BME280;62175;49.416;8.690;2022-10-26T01:18:08;100451.44;;;18.40;53.11
43281;BME280;62175;49.416;8.690;2022-10-26T01:20:53;100448.82;;;18.52;52.50
43281;BME280;62175;49.416;8.690;2022-10-26T01:23:30;100431.10;;;18.58;54.98
43281;BME280;62175;49.416;8.690;2022-10-26T01:26:23;100421.00;;;18.12;53.59
43281;BME280;62175;49.416;8.690;2022-10-26T01:29:27;100422.31;;;18.65;53.35
43281;BME280;62175;49.416;8.690;2022-10-26T01:32:05;100421.97;;;18.76;55.71
43281;BME280;62175;49.416;8.690;2022-10-26T01:34:42;100415.24;;;18.92;57.03
43281;BME280;62175;49.416;8.690;2022-10-26T01:37:12;100421.13;;;18.77;54.31
43281;BME280;62175;49.416;8.690;2022-10-26T01:39:45;100421.61;;;18.86;58.35
43281;BME280;62175;49.416;8.690;2022-10-26T01:42:15;100419.93;;;18.89;54.06
43281;BME280;62175;49.416;8.690;2022-10-26T01:44:47;100415.70;;;18.96;55.44
43281;BME280;62175;49.416;8.690;2022-10-26T01:47:16;100404.08;;;18.71;54.14
43281;BME280;62175;49.416;8.690;2022-10-26T01:49:47;100392.50;;;18.63;53.16
43281;BME280;62175;49.416;8.690;2022-10-26T01:52:17;100392.40;;;18.97;52.62
43281;BME280;62175;49.416;8.690;2022-10-26T01:54:44;100389.58;;;19.03;56.38
43281;BME280;62175;49.416;8.690;2022-10-26T01:57:13;100390.07;;;18.95;52.92
43281;BME280;62175;49.416;8.690;2022-10-26T01:59:53;100394.06;;;18.98;53.59
43281;BME280;62175;49.416;8.690;2022-10-26T02:03:06;100382.00;;;18.83;54.81
43281;BME280;62175;49.416;8.690;2022-10-26T02:05:53;100376.46;;;18.97;53.37
43281;BME280;62175;49.416;8.690;2022-10-26T02:08:39;100384.98;;;19.12;57.44
43281;BME280;62175;49.416;8.690;2022-10-26T02:11:17;100386.29;;;18.70;58.81
43281;BME280;62175;49.416;8.690;2022-10-26T02:13:52;100398.13;;;18.93;53.26
43281;BME280;62175;49.416;8.690;2022-10-26T02:16:24;100403.27;;;19.08;54.35
43281;BME280;62175;49.416;8.690;2022-10-26T02:19:01;100404.36;;;18.89;52.00
43281;BME280;62175;49.416;8.690;2022-10-26T02:21:34;100407.48;;;18.83;56.81
43281;BME280;62175;49.416;8.690;2022-10-26T02:24:04;100405.75;;;19.04;53.33
43281;BME280;62175;49.416;8.690;2022-10-26T02:26:33;100409.58;;;18.77;51.98
43281;BME280;62175;49.416;8.690;2022-10-26T02:29:04;100404.80;;;18.92;51.49
43281;BME280;62175;49.416;8.690;2022-10-26T02:31:34;100407.34;;;19.02;54.85
43281;BME280;62175;49.416;8.690;2022-10-26T02:34:06;100409.80;;;18.97;53.62
43281;BME280;62175;49.416;8.690;2022-10-26T02:36:40;100408.73;;;19.20;55.53
43281;BME280;62175;49.416;8.690;2022-10-26T02:39:09;100408.93;;;19.09;54.21
43281;BME280;62175;49.416;8.690;2022-10-26T02:41:38;100406.22;;;18.95;52.77
43281;BME280;62175;49.416;8.690;2022-10-26T02:44:11;100402.92;;;19.08;54.54
43281;BME280;62175;49.416;8.690;2022-10-26T02:46:40;100404.21;;;19.11;56.52
43281;BME280;62175;49.416;8.690;2022-10-26T02:49:10;100411.32;;;18.75;52.22
43281;BME280;62175;49.416;8.690;2022-10-26T02:51:41;100414.56;;;18.82;55.64
43281;BME280;62175;49.416;8.690;2022-10-26T02:54:15;100417.98;;;18.81;54.66
43281;BME280;62175;49.416;8.690;2022-10-26T02:56:50;100427.58;;;18.67;52.47
43281;BME280;62175;49.416;8.690;2022-10-26T02:59:20;100435.82;;;18.50;54.03
43281;BME280;62175;49.416;8.690;2022-10-26T03:01:49;100443.07;;;18.42;55.35
43281;BME280;62175;49.416;8.690;2022-10-26T03:04:17;100448.44;;;18.25;54.26
43281;BME280;62175;49.416;8.690;2022-10-26T03:06:51;100445.29;;;18.28;57.40
43281;BME280;62175;49.416;8.690;2022-10-26T03:09:18;100435.49;;;18.21;55.59
43281;BME280;62175;49.416;8.690;2022-10-26T03:11:45;100433.39;;;18.16;56.54
43281;BME280;62175;49.416;8.690;2022-10-26T03:14:12;100440.28;;;18.20;57.54
43281;BME280;62175;49.416;8.690;2022-10-26T03:16:39;100443.93;;;17.86;58.31
43281;BME280;62175;49.416;8.690;2022-10-26T03:19:06;100456.15;;;18.04;58.21
43281;BME280;62175;49.416;8.690;2022-10-26T03:21:33;100467.75;;;17.84;57.75
43281;BME280;62175;49.416;8.690;2022-10-26T03:24:00;100462.95;;;18.05;58.73
43281;BME280;62175;49.416;8.690;2022-10-26T03:26:27;100459.80;;;17.89;57.32
43281;BME280;62175;49.416;8.690;2022-10-26T03:28:54;100458.47;;;18.09;59.02
43281;BME280;62175;49.416;8.690;2022-10-26T03:31:21;100455.47;;;18.24;58.51
43281;BME280;62175;49.416;8.690;2022-10-26T03:33:48;100461.25;;;18.32;59.65
43281;BME280;62175;49.416;8.690;2022-10-26T03:36:15;100463.43;;;18.36;57.37
43281;BME280;62175;49.416;8.690;2022-10-26T03:38:42;100454.51;;;17.97;58.19
43281;BME280;62175;49.416;8.690;2022-10-26T03:41:09;100469.74;;;17.81;58.13
43281;BME280;62175;49.416;8.690;2022-10-26T03:43:36;100469.01;;;17.83;58.97
43281;BME280;62175;49.416;8.690;2022-10-26T03:46:03;100458.71;;;18.10;57.95
43281;BME280;62175;49.416;8.690;2022-10-26T03:48:30;100448.94;;;18.47;59.52
43281;BME280;62175;49.416;8.690;2022-10-26T03:50:57;100441.01;;;17.92;58.97
43281;BME280;62175;49.416;8.690;2022-10-26T03:53:25;100439.08;;;17.92;57.96
43281;BME280;62175;49.416;8.690;2022-10-26T03:55:52;100433.50;;;18.13;57.50
43281;BME280;62175;49.416;8.690;2022-10-26T03:58:19;100431.31;;;18.03;57.40
43281;BME280;62175;49.416;8.690;2022-10-26T04:00:47;100428.81;;;18.14;58.48
43281;BME280;62175;49.416;8.690;2022-10-26T04:03:15;100427.03;;;18.36;58.87
43281;BME280;62175;49.416;8.690;2022-10-26T04:05:42;100421.37;;;17.97;56.79
43281;BME280;62175;49.416;8.690;2022-10-26T04:08:09;100425.81;;;18.38;57.10
43281;BME280;62175;49.416;8.690;2022-10-26T04:10:36;100433.07;;;18.04;56.70
43281;BME280;62175;49.416;8.690;2022-10-26T04:13:03;100432.08;;;17.99;57.20
43281;BME280;62175;49.416;8.690;2022-10-26T04:15:30;100437.40;;;17.97;56.25
43281;BME280;62175;49.416;8.690;2022-10-26T04:17:58;100441.93;;;18.13;57.38
43281;BME280;62175;49.416;8.690;2022-10-26T04:20:27;100443.96;;;18.58;57.55
43281;BME280;62175;49.416;8.690;2022-10-26T04:22:57;100440.99;;;18.53;55.93
43281;BME280;62175;49.416;8.690;2022-10-26T04:25:24;100438.35;;;18.03;56.93
43281;BME280;62175;49.416;8.690;2022-10-26T04:27:51;100441.52;;;18.47;56.49
43281;BME280;62175;49.416;8.690;2022-10-26T04:30:18;100441.89;;;18.37;56.38
43281;BME280;62175;49.416;8.690;2022-10-26T04:32:45;100439.24;;;18.33;56.14
43281;BME280;62175;49.416;8.690;2022-10-26T04:35:12;100437.54;;;18.44;56.73
43281;BME280;62175;49.416;8.690;2022-10-26T04:37:39;100440.27;;;18.11;56.73
43281;BME280;62175;49.416;8.690;2022-10-26T04:40:07;100437.71;;;18.16;58.43
43281;BME280;62175;49.416;8.690;2022-10-26T04:42:40;100432.85;;;18.21;57.96
43281;BME280;62175;49.416;8.690;2022-10-26T04:45:08;100426.89;;;18.04;55.34
43281;BME280;62175;49.416;8.690;2022-10-26T04:47:36;100425.48;;;18.07;56.19
43281;BME280;62175;49.416;8.690;2022-10-26T04:50:04;100426.31;;;17.80;58.09
43281;BME280;62175;49.416;8.690;2022-10-26T04:52:31;100418.44;;;17.77;56.08
43281;BME280;62175;49.416;8.690;2022-10-26T04:54:58;100416.32;;;18.13;58.21
43281;BME280;62175;49.416;8.690;2022-10-26T04:57:25;100422.09;;;18.24;57.62
43281;BME280;62175;49.416;8.690;2022-10-26T04:59:52;100424.07;;;18.15;57.02
43281;BME280;62175;49.416;8.690;2022-10-26T05:02:19;100428.88;;;18.41;55.98
43281;BME280;62175;49.416;8.690;2022-10-26T05:04:47;100435.23;;;18.02;55.41
43281;BME280;62175;49.416;8.690;2022-10-26T05:07:15;100434.45;;;18.18;55.65
43281;BME280;62175;49.416;8.690;2022-10-26T05:09:42;100422.97;;;18.15;55.97
43281;BME280;62175;49.416;8.690;2022-10-26T05:12:09;100423.92;;;18.07;56.20
43281;BME280;62175;49.416;8.690;2022-10-26T05:14:36;100425.17;;;18.17;57.61
43281;BME280;62175;49.416;8.690;2022-10-26T05:17:03;100428.57;;;18.09;55.43
43281;BME280;62175;49.416;8.690;2022-10-26T05:19:30;100434.43;;;18.01;55.85
43281;BME280;62175;49.416;8.690;2022-10-26T05:21:57;100438.37;;;18.08;55.96
43281;BME280;62175;49.416;8.690;2022-10-26T05:24:24;100441.23;;;17.99;55.93
43281;BME280;62175;49.416;8.690;2022-10-26T05:26:51;100445.44;;;17.46;56.84
43281;BME280;62175;49.416;8.690;2022-10-26T05:29:18;100452.31;;;18.28;56.77
43281;BME280;62175;49.416;8.690;2022-10-26T05:31:45;100467.40;;;17.98;56.68
43281;BME280;62175;49.416;8.690;2022-10-26T05:34:12;100477.78;;;18.02;56.47
43281;BME280;62175;49.416;8.690;2022-10-26T05:36:39;100476.05;;;17.83;56.17
43281;BME280;62175;49.416;8.690;2022-10-26T05:39:07;100475.29;;;18.03;56.94
43281;BME280;62175;49.416;8.690;2022-10-26T05:41:34;100484.55;;;18.01;58.41
43281;BME280;62175;49.416;8.690;2022-10-26T05:44:01;100483.03;;;18.44;58.14
43281;BME280;62175;49.416;8.690;2022-10-26T05:46:28;100484.78;;;18.30;57.07
43281;BME280;62175;49.416;8.690;2022-10-26T05:48:55;100482.70;;;18.23;56.34
43281;BME280;62175;49.416;8.690;2022-10-26T05:51:23;100507.17;;;17.75;56.39
43281;BME280;62175;49.416;8.690;2022-10-26T05:53:51;100486.61;;;17.96;56.74
43281;BME280;62175;49.416;8.690;2022-10-26T05:56:20;100488.74;;;17.80;56.99
43281;BME280;62175;49.416;8.690;2022-10-26T05:58:57;100499.20;;;17.91;56.60
43281;BME280;62175;49.416;8.690;2022-10-26T06:01:31;100478.45;;;18.00;56.59
43281;BME280;62175;49.416;8.690;2022-10-26T06:04:16;100498.42;;;18.25;56.34
43281;BME280;62175;49.416;8.690;2022-10-26T06:06:54;100513.78;;;18.29;55.65
43281;BME280;62175;49.416;8.690;2022-10-26T06:09:21;100512.14;;;17.97;56.37
43281;BME280;62175;49.416;8.690;2022-10-26T06:11:49;100524.24;;;18.30;56.44
43281;BME280;62175;49.416;8.690;2022-10-26T06:14:18;100518.21;;;17.87;55.76
43281;BME280;62175;49.416;8.690;2022-10-26T06:16:56;100520.43;;;17.79;56.39
43281;BME280;62175;49.416;8.690;2022-10-26T06:19:37;100518.89;;;18.15;56.04
43281;BME280;62175;49.416;8.690;2022-10-26T06:22:17;100521.95;;;18.03;57.65
43281;BME280;62175;49.416;8.690;2022-10-26T06:24:54;100533.54;;;18.20;57.23
43281;BME280;62175;49.416;8.690;2022-10-26T06:27:33;100528.70;;;17.91;58.15
43281;BME280;62175;49.416;8.690;2022-10-26T06:30:06;100534.62;;;18.02;57.49
43281;BME280;62175;49.416;8.690;2022-10-26T06:32:34;100539.57;;;18.16;57.53
43281;BME280;62175;49.416;8.690;2022-10-26T06:35:11;100546.16;;;18.09;59.95
43281;BME280;62175;49.416;8.690;2022-10-26T06:37:43;100555.49;;;18.12;57.54
43281;BME280;62175;49.416;8.690;2022-10-26T06:40:12;100561.33;;;18.08;60.01
43281;BME280;62175;49.416;8.690;2022-10-26T06:42:41;100561.24;;;17.97;59.83
43281;BME280;62175;49.416;8.690;2022-10-26T06:45:11;100562.53;;;18.01;57.21
43281;BME280;62175;49.416;8.690;2022-10-26T06:47:45;100567.24;;;18.07;57.94
43281;BME280;62175;49.416;8.690;2022-10-26T06:50:36;100568.39;;;18.20;58.08
43281;BME280;62175;49.416;8.690;2022-10-26T06:53:14;100572.43;;;17.78;56.72
43281;BME280;62175;49.416;8.690;2022-10-26T06:55:50;100565.16;;;17.96;58.48
43281;BME280;62175;49.416;8.690;2022-10-26T06:58:19;100565.66;;;18.20;58.80
43281;BME280;62175;49.416;8.690;2022-10-26T07:00:48;100567.66;;;18.00;57.27
43281;BME280;62175;49.416;8.690;2022-10-26T07:03:18;100575.06;;;17.96;57.69
43281;BME280;62175;49.416;8.690;2022-10-26T07:05:45;100577.33;;;17.89;57.27
43281;BME280;62175;49.416;8.690;2022-10-26T07:09:24;100580.15;;;17.99;57.65
43281;BME280;62175;49.416;8.690;2022-10-26T07:11:51;100590.40;;;17.71;57.37
43281;BME280;62175;49.416;8.690;2022-10-26T07:14:19;100598.62;;;17.79;58.08
43281;BME280;62175;49.416;8.690;2022-10-26T07:16:46;100601.47;;;18.02;58.11
43281;BME280;62175;49.416;8.690;2022-10-26T07:19:13;100603.75;;;18.11;57.90
43281;BME280;62175;49.416;8.690;2022-10-26T07:21:40;100606.49;;;17.98;57.66
43281;BME280;62175;49.416;8.690;2022-10-26T07:24:07;100607.81;;;18.08;58.53
43281;BME280;62175;49.416;8.690;2022-10-26T07:26:35;100621.48;;;17.91;57.67
43281;BME280;62175;49.416;8.690;2022-10-26T07:29:02;100623.71;;;17.81;58.10
43281;BME280;62175;49.416;8.690;2022-10-26T07:31:29;100626.53;;;18.16;58.12
43281;BME280;62175;49.416;8.690;2022-10-26T07:34:02;100638.74;;;17.68;58.13
43281;BME280;62175;49.416;8.690;2022-10-26T07:36:39;100639.47;;;18.28;58.26
43281;BME280;62175;49.416;8.690;2022-10-26T07:39:11;100641.09;;;18.01;57.50
43281;BME280;62175;49.416;8.690;2022-10-26T07:41:43;100645.60;;;18.07;57.72
43281;BME280;62175;49.416;8.690;2022-10-26T07:44:11;100653.22;;;17.80;58.01
43281;BME280;62175;49.416;8.690;2022-10-26T07:46:37;100650.86;;;18.03;59.40
43281;BME280;62175;49.416;8.690;2022-10-26T07:49:04;100641.48;;;17.95;58.73
43281;BME280;62175;49.416;8.690;2022-10-26T07:51:32;100631.31;;;18.04;59.59
43281;BME280;62175;49.416;8.690;2022-10-26T07:53:58;100641.82;;;17.92;59.54
43281;BME280;62175;49.416;8.690;2022-10-26T07:56:25;100648.85;;;18.00;59.72
43281;BME280;62175;49.416;8.690;2022-10-26T07:58:53;100648.06;;;18.24;58.94
43281;BME280;62175;49.416;8.690;2022-10-26T08:01:21;100642.08;;;18.05;59.96
43281;BME280;62175;49.416;8.690;2022-10-26T08:03:51;100642.15;;;18.03;59.50
43281;BME280;62175;49.416;8.690;2022-10-26T08:06:18;100640.88;;;18.25;60.68
43281;BME280;62175;49.416;8.690;2022-10-26T08:08:45;100648.60;;;18.21;60.28
43281;BME280;62175;49.416;8.690;2022-10-26T08:11:12;100650.34;;;18.13;59.75
43281;BME280;62175;49.416;8.690;2022-10-26T08:13:40;100648.98;;;18.25;59.70
43281;BME280;62175;49.416;8.690;2022-10-26T08:16:08;100646.82;;;18.18;61.74
43281;BME280;62175;49.416;8.690;2022-10-26T08:18:35;100644.26;;;18.20;60.33
43281;BME280;62175;49.416;8.690;2022-10-26T08:21:04;100647.03;;;18.28;60.28
43281;BME280;62175;49.416;8.690;2022-10-26T08:23:32;100651.94;;;18.31;61.47
43281;BME280;62175;49.416;8.690;2022-10-26T08:26:00;100648.33;;;17.89;60.89
43281;BME280;62175;49.416;8.690;2022-10-26T08:28:28;100644.92;;;18.06;61.50
43281;BME280;62175;49.416;8.690;2022-10-26T08:30:56;100649.36;;;18.03;60.18
43281;BME280;62175;49.416;8.690;2022-10-26T08:33:24;100652.68;;;18.36;60.62
43281;BME280;62175;49.416;8.690;2022-10-26T08:35:56;100657.45;;;18.55;60.73
43281;BME280;62175;49.416;8.690;2022-10-26T08:38:24;100663.36;;;18.02;60.15
43281;BME280;62175;49.416;8.690;2022-10-26T08:40:52;100668.64;;;18.60;59.59
43281;BME280;62175;49.416;8.690;2022-10-26T08:43:25;100665.54;;;18.83;59.56
43281;BME280;62175;49.416;8.690;2022-10-26T08:45:58;100663.48;;;18.49;60.67
43281;BME280;62175;49.416;8.690;2022-10-26T08:48:31;100670.00;;;18.70;59.82
43281;BME280;62175;49.416;8.690;2022-10-26T08:51:02;100667.10;;;18.75;60.14
43281;BME280;62175;49.416;8.690;2022-10-26T08:53:37;100671.52;;;18.74;59.19
43281;BME280;62175;49.416;8.690;2022-10-26T08:56:12;100674.22;;;18.94;59.09
43281;BME280;62175;49.416;8.690;2022-10-26T08:58:47;100682.65;;;18.70;59.15
43281;BME280;62175;49.416;8.690;2022-10-26T09:01:14;100680.75;;;18.98;59.18
43281;BME280;62175;49.416;8.690;2022-10-26T09:03:42;100684.92;;;19.15;59.58
43281;BME280;62175;49.416;8.690;2022-10-26T09:06:18;100684.62;;;18.91;58.50
43281;BME280;62175;49.416;8.690;2022-10-26T09:08:56;100684.08;;;19.15;58.40
43281;BME280;62175;49.416;8.690;2022-10-26T09:11:39;100689.00;;;19.12;56.73
43281;BME280;62175;49.416;8.690;2022-10-26T09:14:16;100691.11;;;19.15;59.03
43281;BME280;62175;49.416;8.690;2022-10-26T09:16:54;100700.24;;;19.05;57.05
43281;BME280;62175;49.416;8.690;2022-10-26T09:19:34;100700.76;;;18.84;56.79
43281;BME280;62175;49.416;8.690;2022-10-26T09:22:11;100702.07;;;18.76;57.29
43281;BME280;62175;49.416;8.690;2022-10-26T09:24:50;100705.85;;;19.50;57.17
43281;BME280;62175;49.416;8.690;2022-10-26T09:27:23;100695.69;;;19.44;55.86
43281;BME280;62175;49.416;8.690;2022-10-26T09:29:54;100711.86;;;19.51;57.59
43281;BME280;62175;49.416;8.690;2022-10-26T09:32:26;100717.01;;;19.40;57.18
43281;BME280;62175;49.416;8.690;2022-10-26T09:34:59;100720.28;;;19.20;57.56
43281;BME280;62175;49.416;8.690;2022-10-26T09:37:31;100723.16;;;19.30;56.56
43281;BME280;62175;49.416;8.690;2022-10-26T09:40:10;100726.74;;;19.56;56.93
43281;BME280;62175;49.416;8.690;2022-10-26T09:42:41;100726.92;;;19.56;56.55
43281;BME280;62175;49.416;8.690;2022-10-26T09:45:15;100729.07;;;19.13;56.81
43281;BME280;62175;49.416;8.690;2022-10-26T09:47:47;100734.07;;;19.53;57.15
43281;BME280;62175;49.416;8.690;2022-10-26T09:50:21;100727.38;;;19.49;56.98
43281;BME280;62175;49.416;8.690;2022-10-26T09:52:50;100732.54;;;19.33;57.04
43281;BME280;62175;49.416;8.690;2022-10-26T09:55:18;100728.52;;;19.26;57.89
43281;BME280;62175;49.416;8.690;2022-10-26T09:57:48;100719.58;;;19.15;57.18
43281;BME280;62175;49.416;8.690;2022-10-26T10:00:18;100721.28;;;19.45;57.19
43281;BME280;62175;49.416;8.690;2022-10-26T10:02:49;100733.84;;;19.14;57.33
43281;BME280;62175;49.416;8.690;2022-10-26T10:05:29;100733.74;;;19.74;57.22
43281;BME280;62175;49.416;8.690;2022-10-26T10:08:29;100730.72;;;19.26;57.79
43281;BME280;62175;49.416;8.690;2022-10-26T10:10:58;100741.68;;;19.37;57.67
43281;BME280;62175;49.416;8.690;2022-10-26T10:13:29;100742.40;;;19.64;57.51
43281;BME280;62175;49.416;8.690;2022-10-26T10:16:05;100740.19;;;19.69;57.50
43281;BME280;62175;49.416;8.690;2022-10-26T10:18:34;100744.50;;;19.74;56.93
43281;BME280;62175;49.416;8.690;2022-10-26T10:21:02;100748.80;;;19.23;57.65
43281;BME280;62175;49.416;8.690;2022-10-26T10:23:33;100748.65;;;19.43;57.63
43281;BME280;62175;49.416;8.690;2022-10-26T10:26:04;100752.25;;;19.75;57.85
43281;BME280;62175;49.416;8.690;2022-10-26T10:28:33;100752.68;;;19.85;58.08
43281;BME280;62175;49.416;8.690;2022-10-26T10:31:02;100752.23;;;19.30;58.20
43281;BME280;62175;49.416;8.690;2022-10-26T10:33:34;100755.50;;;19.43;58.18
43281;BME280;62175;49.416;8.690;2022-10-26T10:36:04;100753.84;;;19.85;58.24
43281;BME280;62175;49.416;8.690;2022-10-26T10:38:37;100761.13;;;19.70;58.48
43281;BME280;62175;49.416;8.690;2022-10-26T10:41:15;100762.12;;;19.63;57.86
43281;BME280;62175;49.416;8.690;2022-10-26T10:43:46;100759.82;;;19.79;58.06
43281;BME280;62175;49.416;8.690;2022-10-26T10:46:18;100762.79;;;20.02;57.84
43281;BME280;62175;49.416;8.690;2022-10-26T10:48:48;100769.45;;;20.11;57.46
43281;BME280;62175;49.416;8.690;2022-10-26T10:51:19;100775.28;;;19.56;57.97
43281;BME280;62175;49.416;8.690;2022-10-26T10:53:49;100780.86;;;19.77;58.34
43281;BME280;62175;49.416;8.690;2022-10-26T10:56:26;100780.84;;;19.63;58.75
43281;BME280;62175;49.416;8.690;2022-10-26T10:59:06;100784.19;;;19.49;58.61
43281;BME280;62175;49.416;8.690;2022-10-26T11:01:39;100783.25;;;19.79;57.96
43281;BME280;62175;49.416;8.690;2022-10-26T11:04:30;100784.89;;;19.80;58.49
43281;BME280;62175;49.416;8.690;2022-10-26T11:07:04;100789.13;;;19.75;58.63
43281;BME280;62175;49.416;8.690;2022-10-26T11:09:35;100789.37;;;19.73;58.28
43281;BME280;62175;49.416;8.690;2022-10-26T11:12:09;100788.53;;;19.75;58.71
43281;BME280;62175;49.416;8.690;2022-10-26T11:14:42;100785.96;;;19.96;58.96
43281;BME280;62175;49.416;8.690;2022-10-26T11:17:16;100787.00;;;19.63;59.30
43281;BME280;62175;49.416;8.690;2022-10-26T11:19:50;100790.63;;;19.97;59.30
43281;BME280;62175;49.416;8.690;2022-10-26T11:22:23;100793.84;;;19.60;59.23
43281;BME280;62175;49.416;8.690;2022-10-26T11:24:55;100799.20;;;20.08;58.54
43281;BME280;62175;49.416;8.690;2022-10-26T11:27:29;100798.61;;;19.88;59.10
43281;BME280;62175;49.416;8.690;2022-10-26T11:30:13;100802.76;;;19.86;59.08
43281;BME280;62175;49.416;8.690;2022-10-26T11:32:47;100798.18;;;19.90;59.05
43281;BME280;62175;49.416;8.690;2022-10-26T11:35:21;100798.06;;;19.82;58.81
43281;BME280;62175;49.416;8.690;2022-10-26T11:37:55;100798.13;;;19.93;58.68
43281;BME280;62175;49.416;8.690;2022-10-26T11:40:34;100796.11;;;19.80;59.47
43281;BME280;62175;49.416;8.690;2022-10-26T11:43:10;100794.20;;;20.17;58.61
43281;BME280;62175;49.416;8.690;2022-10-26T11:45:41;100803.82;;;19.89;59.33
43281;BME280;62175;49.416;8.690;2022-10-26T11:48:16;100799.36;;;20.20;58.55
43281;BME280;62175;49.416;8.690;2022-10-26T11:50:50;100806.01;;;20.02;58.75
43281;BME280;62175;49.416;8.690;2022-10-26T11:53:23;100808.84;;;19.99;58.92
43281;BME280;62175;49.416;8.690;2022-10-26T11:55:53;100810.64;;;19.89;58.45
43281;BME280;62175;49.416;8.690;2022-10-26T11:58:23;100810.84;;;20.02;58.29
43281;BME280;62175;49.416;8.690;2022-10-26T12:00:54;100808.85;;;19.93;58.31
43281;BME280;62175;49.416;8.690;2022-10-26T12:03:26;100810.55;;;19.89;58.58
43281;BME280;62175;49.416;8.690;2022-10-26T12:05:54;100814.24;;;20.01;58.40
43281;BME280;62175;49.416;8.690;2022-10-26T12:08:24;100808.24;;;19.96;58.34
43281;BME280;62175;49.416;8.690;2022-10-26T12:11:00;100813.35;;;20.12;58.21
43281;BME280;62175;49.416;8.690;2022-10-26T12:13:34;100816.65;;;19.77;59.63
43281;BME280;62175;49.416;8.690;2022-10-26T12:16:10;100815.95;;;19.96;58.87
43281;BME280;62175;49.416;8.690;2022-10-26T12:18:44;100818.87;;;19.89;59.32
43281;BME280;62175;49.416;8.690;2022-10-26T12:21:14;100820.16;;;19.98;59.43
43281;BME280;62175;49.416;8.690;2022-10-26T12:23:54;100819.22;;;19.95;59.02
43281;BME280;62175;49.416;8.690;2022-10-26T12:26:38;100821.28;;;20.00;58.95
43281;BME280;62175;49.416;8.690;2022-10-26T12:29:24;100818.09;;;20.03;59.17
43281;BME280;62175;49.416;8.690;2022-10-26T12:31:52;100822.31;;;20.00;59.30
43281;BME280;62175;49.416;8.690;2022-10-26T12:34:23;100818.82;;;19.87;59.33
43281;BME280;62175;49.416;8.690;2022-10-26T12:37:10;100816.95;;;20.10;59.25
43281;BME280;62175;49.416;8.690;2022-10-26T12:39:47;100818.05;;;19.81;59.30
43281;BME280;62175;49.416;8.690;2022-10-26T12:42:40;100817.79;;;19.89;59.53
43281;BME280;62175;49.416;8.690;2022-10-26T12:45:17;100817.36;;;19.85;59.48
43281;BME280;62175;49.416;8.690;2022-10-26T12:48:02;100821.86;;;19.97;59.54
43281;BME280;62175;49.416;8.690;2022-10-26T12:50:30;100823.45;;;19.99;59.73
43281;BME280;62175;49.416;8.690;2022-10-26T12:52:59;100823.35;;;19.69;59.84
43281;BME280;62175;49.416;8.690;2022-10-26T12:56:04;100824.66;;;20.65;59.93
43281;BME280;62175;49.416;8.690;2022-10-26T12:59:43;100826.62;;;19.99;59.50
43281;BME280;62175;49.416;8.690;2022-10-26T13:02:34;100827.60;;;20.06;59.50
43281;BME280;62175;49.416;8.690;2022-10-26T13:05:29;100828.87;;;20.13;59.84
43281;BME280;62175;49.416;8.690;2022-10-26T13:08:02;100826.15;;;20.39;59.22
43281;BME280;62175;49.416;8.690;2022-10-26T13:10:30;100830.55;;;20.27;59.32
43281;BME280;62175;49.416;8.690;2022-10-26T13:12:59;100827.61;;;20.39;59.19
43281;BME280;62175;49.416;8.690;2022-10-26T13:15:30;100829.90;;;20.44;59.37